Cincinnati, Ohio
Traffic Map
Current Weather Conditions
Cincinnati, Ohio
Clear
Clear
18°
Feels Like: 18°
Wind Chill: 18° Ceiling: Unl
Heat Index: 18° Visibility: 10mi
Dew Point: Wind: 6mph
Humidity: 56% Direction: 280° (W)
Pressure: 29.94in Gusts: 0mph
Raw Report DataKLUK 260453Z AUTO 28005KT 10SM CLR 18/09 A2994 RMK AO2 SLP136 T01780089 402280044
Traffic Incident Summary
Active as of:
Severity:
Category:
InformationThere was an issue retrieving the traffic information for this location. Please try a different location or try again shortly.
Advertisements
Track Severe Weather on mobile